This is the latest recevied weather packets stored in our database for station/object NK7E-2. If no packets are shown the sender has not sent any weather packets the latest 1 day(s).
| Time | Temp. | Humidity | Pressure | Rain* | Wind** | Luminosity | Snow |
|---|---|---|---|---|---|---|---|
| 1778015716 | 22.22° C | 35% | 1017.3 hPa | 0 mm | 4.47 m/s, 248° | - | - |
| 1778015116 | 22.22° C | 37% | 1017.2 hPa | 0 mm | 3.13 m/s, 248° | - | - |
| 1778014516 | 22.78° C | 34% | 1017.3 hPa | 0 mm | 3.58 m/s, 225° | - | - |
| 1778013916 | 21.67° C | 37% | 1017.6 hPa | 0 mm | 3.58 m/s, 248° | - | - |
| 1778013316 | 21.11° C | 38% | 1017.6 hPa | 0 mm | 4.02 m/s, 225° | - | - |
| 1778012716 | 21.11° C | 40% | 1017.6 hPa | 0 mm | 4.02 m/s, 270° | - | - |
| 1778012116 | 21.67° C | 40% | 1018.1 hPa | 0 mm | 5.81 m/s, 270° | - | - |
| 1778011516 | 21.67° C | 39% | 1018 hPa | 0 mm | 4.02 m/s, 225° | - | - |
| 1778010916 | 21.11° C | 42% | 1017.9 hPa | 0 mm | 5.81 m/s, 248° | - | - |
| 1778010316 | 21.11° C | 43% | 1018 hPa | 0 mm | 4.47 m/s, 270° | - | - |
| 1778009716 | 21.11° C | 44% | 1018 hPa | 0 mm | 4.02 m/s, 248° | - | - |
| 1778009116 | 21.11° C | 41% | 1018 hPa | 0 mm | 4.47 m/s, 248° | - | - |
| 1778008516 | 21.11° C | 44% | 1018.1 hPa | 0 mm | 3.58 m/s, 225° | - | - |
| 1778007916 | 20.56° C | 47% | 1018.4 hPa | 0 mm | 5.36 m/s, 248° | - | - |
| 1778007316 | 20° C | 48% | 1018.2 hPa | 0 mm | 4.47 m/s, 248° | - | - |
| 1778006716 | 20° C | 48% | 1018.4 hPa | 0 mm | 4.92 m/s, 248° | - | - |
| 1778006116 | 20° C | 47% | 1018.7 hPa | 0 mm | 2.68 m/s, 248° | - | - |
| 1778005516 | 19.44° C | 53% | 1018.8 hPa | 0 mm | 1.79 m/s, 225° | - | - |
| 1778004916 | 19.44° C | 54% | 1019.1 hPa | 0 mm | 3.58 m/s, 248° | - | - |
| 1778004316 | 19.44° C | 54% | 1018.9 hPa | 0.25 mm | 3.13 m/s, 225° | - | - |
| 1778003716 | 19.44° C | 54% | 1018.8 hPa | 0.25 mm | 3.13 m/s, 248° | - | - |
| 1778003116 | 18.89° C | 56% | 1018.9 hPa | 0.25 mm | 3.58 m/s, 248° | - | - |
| 1778002516 | 18.89° C | 57% | 1019 hPa | 0.25 mm | 2.24 m/s, 248° | - | - |
| 1778001916 | 18.33° C | 56% | 1019 hPa | 0.25 mm | 3.58 m/s, 248° | - | - |
| 1778001316 | 18.33° C | 60% | 1019 hPa | 0.25 mm | 2.24 m/s, 225° | - | - |
* Rain latest hour (hover to see other rain measurements)
** Current wind speed in m/s (hover to see current wind gust speed)